Map

Track Data

SID SEASON NUMBER BASIN SUBBASIN NAME ISO_TIME NATURE LAT LON WMO_WIND WMO_PRES WMO_AGENCY TRACK_TYPE DIST2LAND LANDFALL IFLAG USA_AGENCY USA_ATCF_ID USA_LAT USA_LON USA_RECORD USA_STATUS USA_WIND USA_PRES USA_SSHS USA_R34_NE USA_R34_SE USA_R34_SW USA_R34_NW USA_R50_NE USA_R50_SE USA_R50_SW USA_R50_NW USA_R64_NE USA_R64_SE USA_R64_SW USA_R64_NW USA_POCI USA_ROCI USA_RMW USA_EYE TOKYO_LAT TOKYO_LON TOKYO_GRADE TOKYO_WIND TOKYO_PRES TOKYO_R50_DIR TOKYO_R50_LONG TOKYO_R50_SHORT TOKYO_R30_DIR TOKYO_R30_LONG TOKYO_R30_SHORT TOKYO_LAND CMA_LAT CMA_LON CMA_CAT CMA_WIND CMA_PRES HKO_LAT HKO_LON HKO_CAT HKO_WIND HKO_PRES NEWDELHI_LAT NEWDELHI_LON NEWDELHI_GRADE NEWDELHI_WIND NEWDELHI_PRES NEWDELHI_CI NEWDELHI_DP NEWDELHI_POCI REUNION_LAT REUNION_LON REUNION_TYPE REUNION_WIND REUNION_PRES REUNION_TNUM REUNION_CI REUNION_RMW REUNION_R34_NE REUNION_R34_SE REUNION_R34_SW REUNION_R34_NW REUNION_R50_NE REUNION_R50_SE REUNION_R50_SW REUNION_R50_NW REUNION_R64_NE REUNION_R64_SE REUNION_R64_SW REUNION_R64_NW BOM_LAT BOM_LON BOM_TYPE BOM_WIND BOM_PRES BOM_TNUM BOM_CI BOM_RMW BOM_R34_NE BOM_R34_SE BOM_R34_SW BOM_R34_NW BOM_R50_NE BOM_R50_SE BOM_R50_SW BOM_R50_NW BOM_R64_NE BOM_R64_SE BOM_R64_SW BOM_R64_NW BOM_ROCI BOM_POCI BOM_EYE BOM_POS_METHOD BOM_PRES_METHOD NADI_LAT NADI_LON NADI_CAT NADI_WIND NADI_PRES WELLINGTON_LAT WELLINGTON_LON WELLINGTON_WIND WELLINGTON_PRES DS824_LAT DS824_LON DS824_STAGE DS824_WIND DS824_PRES TD9636_LAT TD9636_LON TD9636_STAGE TD9636_WIND TD9636_PRES TD9635_LAT TD9635_LON TD9635_WIND TD9635_PRES TD9635_ROCI NEUMANN_LAT NEUMANN_LON NEUMANN_CLASS NEUMANN_WIND NEUMANN_PRES MLC_LAT MLC_LON MLC_CLASS MLC_WIND MLC_PRES USA_GUST BOM_GUST BOM_GUST_PER REUNION_GUST REUNION_GUST_PER USA_SEAHGT USA_SEARAD_NE USA_SEARAD_SE USA_SEARAD_SW USA_SEARAD_NW STORM_SPEED STORM_DIR
1954278N12302 1954 76 NA NA HAZEL 1954-10-05 06:00:00 TS 12.0000 -58.5000 40 hurdat_atl main 309 262 O_____________ hurdat_atl AL141954 12.0000 -58.5000 TS 40 0 10 269
1954278N12302 1954 76 NA NA HAZEL 1954-10-05 09:00:00 TS 11.9902 -59.0025 main 262 219 P_____________ AL141954 11.9902 -59.0025 TS 45 0 10 270
1954278N12302 1954 76 NA NA HAZEL 1954-10-05 12:00:00 TS 12.0000 -59.5000 50 hurdat_atl main 219 181 O_____________ hurdat_atl AL141954 12.0000 -59.5000 TS 50 0 10 273
1954278N12302 1954 76 NA CS HAZEL 1954-10-05 15:00:00 TS 12.0424 -59.9925 main 181 166 P_____________ AL141954 12.0424 -59.9925 TS 52 0 10 276
1954278N12302 1954 76 NA CS HAZEL 1954-10-05 18:00:00 TS 12.1000 -60.5000 55 1002 hurdat_atl main 166 156 O_____________ hurdat_atl AL141954 12.1000 -60.5000 TS 55 1002 0 10 276
1954278N12302 1954 76 NA CS HAZEL 1954-10-05 21:00:00 TS 12.1498 -61.0275 main 156 156 P_____________ AL141954 12.1498 -61.0275 TS 60 0 11 275
1954278N12302 1954 76 NA CS HAZEL 1954-10-06 00:00:00 TS 12.2000 -61.6000 65 hurdat_atl main 167 167 O_____________ hurdat_atl AL141954 12.2000 -61.6000 L HU 65 1 12 275
1954278N12302 1954 76 NA CS HAZEL 1954-10-06 03:00:00 TS 12.2424 -62.2276 main 167 167 P_____________ AL141954 12.2424 -62.2276 HU 67 1 13 275
1954278N12302 1954 76 NA CS HAZEL 1954-10-06 06:00:00 TS 12.3000 -62.9000 70 hurdat_atl main 179 179 O_____________ hurdat_atl AL141954 12.3000 -62.9000 HU 70 1 14 277
1954278N12302 1954 76 NA CS HAZEL 1954-10-06 09:00:00 TS 12.3999 -63.5999 main 198 198 P_____________ AL141954 12.3999 -63.5999 HU 70 1 14 278
1954278N12302 1954 76 NA CS HAZEL 1954-10-06 12:00:00 TS 12.5000 -64.3000 70 998 hurdat_atl main 213 213 O_____________ hurdat_atl AL141954 12.5000 -64.3000 HU 70 998 1 14 277
1954278N12302 1954 76 NA CS HAZEL 1954-10-06 15:00:00 TS 12.5574 -64.9726 main 240 228 P_____________ AL141954 12.5574 -64.9726 HU 70 998 1 13 275
1954278N12302 1954 76 NA CS HAZEL 1954-10-06 18:00:00 TS 12.6000 -65.6000 70 998 hurdat_atl main 228 223 O_____________ hurdat_atl AL141954 12.6000 -65.6000 HU 70 998 1 12 274
1954278N12302 1954 76 NA CS HAZEL 1954-10-06 21:00:00 TS 12.6423 -66.1726 main 223 223 P_____________ AL141954 12.6423 -66.1726 HU 70 1 11 275
1954278N12302 1954 76 NA CS HAZEL 1954-10-07 00:00:00 TS 12.7000 -66.7000 70 hurdat_atl main 235 221 O_____________ hurdat_atl AL141954 12.7000 -66.7000 HU 70 1 10 278
1954278N12302 1954 76 NA CS HAZEL 1954-10-07 03:00:00 TS 12.7849 -67.2075 main 221 204 P_____________ AL141954 12.7849 -67.2075 HU 70 1 10 282
1954278N12302 1954 76 NA CS HAZEL 1954-10-07 06:00:00 TS 12.9000 -67.7000 70 hurdat_atl main 204 190 O_____________ hurdat_atl AL141954 12.9000 -67.7000 HU 70 1 10 285
1954278N12302 1954 76 NA CS HAZEL 1954-10-07 09:00:00 TS 13.0424 -68.2000 main 190 179 P_____________ AL141954 13.0424 -68.2000 HU 70 1 10 287
1954278N12302 1954 76 NA CS HAZEL 1954-10-07 12:00:00 TS 13.2000 -68.7000 70 997 hurdat_atl main 179 154 O_____________ hurdat_atl AL141954 13.2000 -68.7000 HU 70 997 1 10 288
1954278N12302 1954 76 NA CS HAZEL 1954-10-07 15:00:00 TS 13.3649 -69.2075 main 164 151 P_____________ AL141954 13.3649 -69.2075 HU 70 995 1 10 287
1954278N12302 1954 76 NA CS HAZEL 1954-10-07 18:00:00 TS 13.5000 -69.7000 70 994 hurdat_atl main 158 156 O_____________ hurdat_atl AL141954 13.5000 -69.7000 HU 70 994 1 10 282
1954278N12302 1954 76 NA CS HAZEL 1954-10-07 21:00:00 TS 13.5724 -70.1726 main 167 164 P_____________ AL141954 13.5724 -70.1726 HU 72 1 9 277
1954278N12302 1954 76 NA CS HAZEL 1954-10-08 00:00:00 TS 13.6000 -70.6000 75 hurdat_atl main 164 144 O_____________ hurdat_atl AL141954 13.6000 -70.6000 HU 75 1 8 273
1954278N12302 1954 76 NA CS HAZEL 1954-10-08 03:00:00 TS 13.6074 -70.9800 main 144 136 P_____________ AL141954 13.6074 -70.9800 HU 75 1 7 270
1954278N12302 1954 76 NA CS HAZEL 1954-10-08 06:00:00 TS 13.6000 -71.3000 75 hurdat_atl main 136 134 O_____________ hurdat_atl AL141954 13.6000 -71.3000 HU 75 1 6 269
1954278N12302 1954 76 NA CS HAZEL 1954-10-08 09:00:00 TS 13.5925 -71.5875 main 134 134 P_____________ AL141954 13.5925 -71.5875 HU 75 1 5 270
1954278N12302 1954 76 NA CS HAZEL 1954-10-08 12:00:00 TS 13.6000 -71.8000 75 986 hurdat_atl main 134 134 O_____________ hurdat_atl AL141954 13.6000 -71.8000 HU 75 986 1 3 279
1954278N12302 1954 76 NA CS HAZEL 1954-10-08 15:00:00 TS 13.6424 -71.9075 main 136 136 P_____________ AL141954 13.6424 -71.9075 HU 77 1 2 297
1954278N12302 1954 76 NA CS HAZEL 1954-10-08 18:00:00 TS 13.7000 -72.0000 80 hurdat_atl main 149 149 O_____________ hurdat_atl AL141954 13.7000 -72.0000 HU 80 1 3 294
1954278N12302 1954 76 NA CS HAZEL 1954-10-08 21:00:00 TS 13.7499 -72.1550 main 155 155 P_____________ AL141954 13.7499 -72.1550 HU 82 1 4 284
1954278N12302 1954 76 NA CS HAZEL 1954-10-09 00:00:00 TS 13.8000 -72.4000 85 hurdat_atl main 173 173 O_____________ hurdat_atl AL141954 13.8000 -72.4000 HU 85 2 6 280
1954278N12302 1954 76 NA CS HAZEL 1954-10-09 03:00:00 TS 13.8501 -72.7700 main 199 199 P_____________ AL141954 13.8501 -72.7700 HU 87 2 8 277
1954278N12302 1954 76 NA CS HAZEL 1954-10-09 06:00:00 TS 13.9000 -73.2000 90 hurdat_atl main 219 219 O_____________ hurdat_atl AL141954 13.9000 -73.2000 HU 90 2 8 276
1954278N12302 1954 76 NA CS HAZEL 1954-10-09 09:00:00 TS 13.9425 -73.6075 main 243 243 P_____________ AL141954 13.9425 -73.6075 HU 92 2 8 277
1954278N12302 1954 76 NA CS HAZEL 1954-10-09 12:00:00 TS 14.0000 -74.0000 95 hurdat_atl main 280 280 O_____________ hurdat_atl AL141954 14.0000 -74.0000 HU 95 2 8 281
1954278N12302 1954 76 NA CS HAZEL 1954-10-09 15:00:00 TS 14.0925 -74.3725 main 319 319 P_____________ AL141954 14.0925 -74.3725 HU 97 3 7 286
1954278N12302 1954 76 NA CS HAZEL 1954-10-09 18:00:00 TS 14.2000 -74.7000 100 hurdat_atl main 340 340 O_____________ hurdat_atl AL141954 14.2000 -74.7000 HU 100 3 6 289
1954278N12302 1954 76 NA CS HAZEL 1954-10-09 21:00:00 TS 14.2925 -74.9800 main 357 357 P_____________ AL141954 14.2925 -74.9800 HU 102 3 5 292
1954278N12302 1954 76 NA CS HAZEL 1954-10-10 00:00:00 TS 14.4000 -75.2000 105 hurdat_atl main 374 374 O_____________ hurdat_atl AL141954 14.4000 -75.2000 HU 105 3 5 303
1954278N12302 1954 76 NA CS HAZEL 1954-10-10 03:00:00 TS 14.5425 -75.3800 main 390 365 P_____________ AL141954 14.5425 -75.3800 HU 105 3 4 316
1954278N12302 1954 76 NA CS HAZEL 1954-10-10 06:00:00 TS 14.7000 -75.5000 105 hurdat_atl main 365 352 O_____________ hurdat_atl AL141954 14.7000 -75.5000 HU 105 3 4 329
1954278N12302 1954 76 NA CS HAZEL 1954-10-10 09:00:00 TS 14.8500 -75.5725 main 352 330 P_____________ AL141954 14.8500 -75.5725 HU 105 3 3 343
1954278N12302 1954 76 NA CS HAZEL 1954-10-10 12:00:00 TS 15.0000 -75.6000 105 hurdat_atl main 330 319 O_____________ hurdat_atl AL141954 15.0000 -75.6000 HU 105 3 3 355
1954278N12302 1954 76 NA CS HAZEL 1954-10-10 15:00:00 TS 15.1500 -75.6150 main 308 297 P_____________ AL141954 15.1500 -75.6150 HU 105 3 3 0
1954278N12302 1954 76 NA CS HAZEL 1954-10-10 18:00:00 TS 15.3000 -75.6000 105 hurdat_atl main 297 286 O_____________ hurdat_atl AL141954 15.3000 -75.6000 HU 105 3 3 5
1954278N12302 1954 76 NA CS HAZEL 1954-10-10 21:00:00 TS 15.4500 -75.5650 main 276 267 P_____________ AL141954 15.4500 -75.5650 HU 105 3 3 17
1954278N12302 1954 76 NA CS HAZEL 1954-10-11 00:00:00 TS 15.6000 -75.5000 105 hurdat_atl main 267 257 O_____________ hurdat_atl AL141954 15.6000 -75.5000 HU 105 3 3 28
1954278N12302 1954 76 NA CS HAZEL 1954-10-11 03:00:00 TS 15.7350 -75.4075 main 260 243 P_____________ AL141954 15.7350 -75.4075 HU 105 3 4 33
1954278N12302 1954 76 NA CS HAZEL 1954-10-11 06:00:00 TS 15.9000 -75.3000 105 hurdat_atl main 243 227 O_____________ hurdat_atl AL141954 15.9000 -75.3000 HU 105 3 4 26
1954278N12302 1954 76 NA CS HAZEL 1954-10-11 09:00:00 TS 16.1350 -75.2000 main 227 204 P_____________ AL141954 16.1350 -75.2000 HU 105 3 5 21
1954278N12302 1954 76 NA CS HAZEL 1954-10-11 12:00:00 TS 16.4000 -75.1000 105 hurdat_atl main 204 193 O_____________ hurdat_atl AL141954 16.4000 -75.1000 HU 105 3 6 20
1954278N12302 1954 76 NA CS HAZEL 1954-10-11 15:00:00 TS 16.6500 -75.0000 main 185 162 P_____________ AL141954 16.6500 -75.0000 HU 105 3 5 21
1954278N12302 1954 76 NA CS HAZEL 1954-10-11 18:00:00 TS 16.9000 -74.9000 105 hurdat_atl main 162 138 O_____________ hurdat_atl AL141954 16.9000 -74.9000 HU 105 3 5 20
1954278N12302 1954 76 NA CS HAZEL 1954-10-11 21:00:00 TS 17.1425 -74.8149 main 138 105 P_____________ AL141954 17.1425 -74.8149 HU 105 3 5 21
1954278N12302 1954 76 NA CS HAZEL 1954-10-12 00:00:00 TS 17.4000 -74.7000 105 hurdat_atl main 105 67 O_____________ hurdat_atl AL141954 17.4000 -74.7000 HU 105 3 6 29
1954278N12302 1954 76 NA CS HAZEL 1954-10-12 03:00:00 TS 17.6932 -74.4933 main 67 30 P_____________ AL141954 17.6932 -74.4933 HU 105 3 7 32
1954278N12302 1954 76 NA CS HAZEL 1954-10-12 06:00:00 TS 18.0000 -74.3000 105 hurdat_atl main 30 0 O_____________ hurdat_atl AL141954 18.0000 -74.3000 HU 105 3 7 25
1954278N12302 1954 76 NA CS HAZEL 1954-10-12 09:00:00 TS 18.3000 -74.2000 105 hurdat_atl main 0 0 O_____________ hurdat_atl AL141954 18.3000 -74.2000 L HU 105 3 7 25
1954278N12302 1954 76 NA CS HAZEL 1954-10-12 12:00:00 TS 18.6000 -74.0000 85 hurdat_atl main 0 0 O_____________ hurdat_atl AL141954 18.6000 -74.0000 HU 85 2 7 31
1954278N12302 1954 76 NA CS HAZEL 1954-10-12 15:00:00 TS 18.8602 -73.8397 main 39 39 P_____________ AL141954 18.8602 -73.8397 HU 85 2 6 30
1954278N12302 1954 76 NA CS HAZEL 1954-10-12 18:00:00 TS 19.1000 -73.7000 85 hurdat_atl main 64 39 O_____________ hurdat_atl AL141954 19.1000 -73.7000 HU 85 2 6 29
1954278N12302 1954 76 NA CS HAZEL 1954-10-12 21:00:00 TS 19.3500 -73.5500 main 35 0 P_____________ AL141954 19.3500 -73.5499 HU 85 2 6 30
1954278N12302 1954 76 NA CS HAZEL 1954-10-13 00:00:00 TS 19.6000 -73.4000 85 hurdat_atl main 0 0 O_____________ hurdat_atl AL141954 19.6000 -73.4000 L HU 85 2 6 32
1954278N12302 1954 76 NA NA HAZEL 1954-10-13 03:00:00 TS 19.8350 -73.2275 main 0 0 P_____________ AL141954 19.8350 -73.2275 HU 85 2 6 30
1954278N12302 1954 76 NA NA HAZEL 1954-10-13 06:00:00 TS 20.1000 -73.1000 85 hurdat_atl main 22 22 O_____________ hurdat_atl AL141954 20.1000 -73.1000 HU 85 2 6 13
1954278N12302 1954 76 NA NA HAZEL 1954-10-13 09:00:00 TS 20.4487 -73.0805 main 55 22 P_____________ AL141954 20.4487 -73.0805 HU 85 2 7 0
1954278N12302 1954 76 NA NA HAZEL 1954-10-13 12:00:00 TS 20.8000 -73.1000 85 hurdat_atl main 22 0 O_____________ hurdat_atl AL141954 20.8000 -73.1000 HU 85 2 7 0
1954278N12302 1954 76 NA NA HAZEL 1954-10-13 14:00:00 TS 21.0000 -73.1000 85 hurdat_atl main 0 0 O_____________ hurdat_atl AL141954 21.0000 -73.1000 L HU 85 2 7 355
1954278N12302 1954 76 NA NA HAZEL 1954-10-13 15:00:00 TS 21.1458 -73.1316 main 0 0 P_____________ AL141954 21.1458 -73.1316 HU 85 2 11 345
1954278N12302 1954 76 NA NA HAZEL 1954-10-13 18:00:00 TS 21.7000 -73.3000 85 972 hurdat_atl main 56 56 O_____________ hurdat_atl AL141954 21.7000 -73.3000 HU 85 972 2 11 347
1954278N12302 1954 76 NA NA HAZEL 1954-10-13 21:00:00 TS 22.1974 -73.4023 main 113 113 P_____________ AL141954 22.1974 -73.4023 HU 85 973 2 10 349
1954278N12302 1954 76 NA NA HAZEL 1954-10-14 00:00:00 TS 22.7000 -73.5000 85 974 hurdat_atl main 170 170 O_____________ hurdat_atl AL141954 22.7000 -73.5000 HU 85 974 2 10 350
1954278N12302 1954 76 NA NA HAZEL 1954-10-14 03:00:00 TS 23.2198 -73.6057 main 227 227 P_____________ AL141954 23.2198 -73.6057 HU 87 2 11 346
1954278N12302 1954 76 NA NA HAZEL 1954-10-14 06:00:00 TS 23.8000 -73.8000 90 hurdat_atl main 297 297 O_____________ hurdat_atl AL141954 23.8000 -73.8000 HU 90 2 13 338
1954278N12302 1954 76 NA NA HAZEL 1954-10-14 09:00:00 TS 24.4475 -74.1405 main 364 322 P_____________ AL141954 24.4475 -74.1405 HU 95 2 16 333
1954278N12302 1954 76 NA NA HAZEL 1954-10-14 12:00:00 TS 25.2000 -74.6000 100 hurdat_atl main 322 306 O_____________ hurdat_atl AL141954 25.2000 -74.6000 HU 100 3 19 331
1954278N12302 1954 76 NA NA HAZEL 1954-10-14 15:00:00 TS 26.0701 -75.1275 main 311 300 P_____________ AL141954 26.0701 -75.1275 HU 105 3 21 331
1954278N12302 1954 76 NA NA HAZEL 1954-10-14 18:00:00 TS 27.0000 -75.7000 110 hurdat_atl main 312 312 O_____________ hurdat_atl AL141954 27.0000 -75.7000 HU 110 3 21 331
1954278N12302 1954 76 NA NA HAZEL 1954-10-14 21:00:00 TS 27.8922 -76.2437 main 360 355 P_____________ AL141954 27.8922 -76.2437 HU 112 3 21 332
1954278N12302 1954 76 NA NA HAZEL 1954-10-15 00:00:00 TS 28.8000 -76.8000 115 hurdat_atl main 362 325 O_____________ hurdat_atl AL141954 28.8000 -76.8000 HU 115 4 21 331
1954278N12302 1954 76 NA NA HAZEL 1954-10-15 03:00:00 TS 29.7353 -77.4298 main 329 292 P_____________ AL141954 29.7353 -77.4298 HU 115 4 22 331
1954278N12302 1954 76 NA NA HAZEL 1954-10-15 06:00:00 TS 30.7000 -78.0000 115 hurdat_atl main 283 182 O_____________ hurdat_atl AL141954 30.7000 -78.0000 HU 115 4 22 335
1954278N12302 1954 76 NA NA HAZEL 1954-10-15 09:00:00 TS 31.6873 -78.4684 main 167 79 P_____________ AL141954 31.6873 -78.4684 HU 115 4 21 343
1954278N12302 1954 76 NA NA HAZEL 1954-10-15 12:00:00 TS 32.7000 -78.7000 115 938 hurdat_atl main 72 28 O_____________ hurdat_atl AL141954 32.7000 -78.7000 HU 115 938 4 19 356
1954278N12302 1954 76 NA NA HAZEL 1954-10-15 15:00:00 TS 33.6199 -78.6410 main 28 0 P_____________ AL141954 33.6199 -78.6410 HU 115 938 4 21 4
1954278N12302 1954 76 NA NA HAZEL 1954-10-15 15:30:00 TS 33.9000 -78.6000 115 938 hurdat_atl main 0 0 O_____________ hurdat_atl AL141954 33.9000 -78.6000 L HU 115 938 4 48 7
1954278N12302 1954 76 NA NA HAZEL 1954-10-15 18:00:00 ET 36.0000 -78.3000 80 970 hurdat_atl main 0 0 O_____________ hurdat_atl AL141954 36.0000 -78.3000 EX 80 970 -4 47 11
1954278N12302 1954 76 NA NA HAZEL 1954-10-15 21:00:00 ET 38.0858 -77.5993 main 0 0 P_____________ AL141954 38.0858 -77.5993 EX 75 -4 43 12
1954278N12302 1954 76 NA NA HAZEL 1954-10-16 00:00:00 ET 40.2000 -77.2000 70 hurdat_atl main 0 0 O_____________ hurdat_atl AL141954 40.2000 -77.2000 EX 70 -4 51 356
1954278N12302 1954 76 NA NA HAZEL 1954-10-16 03:00:00 ET 43.2091 -78.0700 main 0 0 P_____________ AL141954 43.2091 -78.0700 EX 65 -4 60 345
1954278N12302 1954 76 NA NA HAZEL 1954-10-16 06:00:00 ET 46.0000 -79.3000 60 hurdat_atl main 0 0 O_____________ hurdat_atl AL141954 46.0000 -79.3000 EX 60 -4 46 344
1954278N12302 1954 76 NA NA HAZEL 1954-10-16 09:00:00 ET 47.6293 -79.8577 main 0 0 P_____________ AL141954 47.6293 -79.8577 EX 55 -4 28 350
1954278N12302 1954 76 NA NA HAZEL 1954-10-16 12:00:00 ET 48.8000 -80.0000 50 982 hurdat_atl main 0 0 O_____________ hurdat_atl AL141954 48.8000 -80.0000 EX 50 982 -4 26 1
1954278N12302 1954 76 NA NA HAZEL 1954-10-16 15:00:00 ET 50.2325 -79.8123 main 0 0 P_____________ AL141954 50.2325 -79.8123 EX 47 985 -4 27 7
1954278N12302 1954 76 NA NA HAZEL 1954-10-16 18:00:00 ET 51.5000 -79.5000 45 988 hurdat_atl main 0 0 O_____________ hurdat_atl AL141954 51.5000 -79.5000 EX 45 988 -4 22 6
1954278N12302 1954 76 NA NA HAZEL 1954-10-16 21:00:00 ET 52.4547 -79.4595 main 46 33 P_____________ AL141954 52.4547 -79.4595 EX 45 -4 17 0
1954278N12302 1954 76 NA NA HAZEL 1954-10-17 00:00:00 ET 53.2000 -79.5000 45 hurdat_atl main 39 19 O_____________ hurdat_atl AL141954 53.2000 -79.5000 EX 45 -4 14 360
1954278N12302 1954 76 NA NA HAZEL 1954-10-17 03:00:00 ET 53.9025 -79.5000 main 19 0 P_____________ AL141954 53.9025 -79.5000 EX 40 -4 13 1
1954278N12302 1954 76 NA NA HAZEL 1954-10-17 06:00:00 ET 54.5000 -79.5000 35 hurdat_atl main 0 0 O_____________ hurdat_atl AL141954 54.5000 -79.5000 EX 35 -4 11 358
1954278N12302 1954 76 NA NA HAZEL 1954-10-17 09:00:00 ET 55.0373 -79.5508 main 35 35 P_____________ AL141954 55.0373 -79.5508 EX 35 -4 10 1
1954278N12302 1954 76 NA NA HAZEL 1954-10-17 12:00:00 ET 55.5000 -79.5000 35 hurdat_atl main 38 0 O_____________ hurdat_atl AL141954 55.5000 -79.5000 EX 35 -4 9 10
1954278N12302 1954 76 NA NA HAZEL 1954-10-17 15:00:00 ET 55.9216 -79.2836 main 0 0 P_____________ AL141954 55.9216 -79.2836 EX 35 -4 9 26
1954278N12302 1954 76 NA NA HAZEL 1954-10-17 18:00:00 ET 56.3000 -78.8000 35 hurdat_atl main 6 6 O_____________ hurdat_atl AL141954 56.3000 -78.8000 EX 35 -4 10 45
1954278N12302 1954 76 NA NA HAZEL 1954-10-17 21:00:00 ET 56.6280 -77.9949 main 59 36 P_____________ AL141954 56.6280 -77.9949 EX 32 -4 12 55
1954278N12302 1954 76 NA NA HAZEL 1954-10-18 00:00:00 ET 57.0000 -77.0000 30 hurdat_atl main 30 0 O_____________ hurdat_atl AL141954 57.0000 -77.0000 EX 30 -4 14 51
1954278N12302 1954 76 NA NA HAZEL 1954-10-18 03:00:00 ET 57.5084 -76.0001 main 0 0 P_____________ AL141954 57.5084 -76.0001 EX 27 -4 15 44
1954278N12302 1954 76 NA NA HAZEL 1954-10-18 06:00:00 ET 58.1000 -75.0000 25 hurdat_atl main 0 O_____________ hurdat_atl AL141954 58.1000 -75.0000 EX 25 -4 16 42

About IBTrACS Database

This database is a web-friendly format of International Best Track Archive for Climate Stewardship (IBTrACS), a global best track data archive curated by NOAA dating back to 1842.

Updated: 2021-10-08